Rogers Spring, Nevada Weather observations

Data are for 10 minute period ending at time listed.
 Day   Time   Solar   Ave.   Ave.  Ave.  Vector  Max.   Baro.   Total    
  of    of     Rad.   Air    Rel.  Wind   Wind   Wind  Press.  Precip.   
Year   Day            Temp.  Hum.  Speed  Dir.   Gust                    
2014   (PST)  Kw/m2    F      %     mph   deg.    mph    mb.     in.     
-------------------------------------------------------------------------
 212   13:50   0.85  102.9    14    7.6   255    13.7   931.8    0.00 
 212   14:00   0.84  102.6    14    6.0   252    15.1   931.6    0.00 
 212   14:10   0.82  103.4    14    4.9   246    11.7   931.5    0.00 
 212   14:20   0.80  103.4    14    6.9   258    15.6   931.3    0.00 
 212   14:30   0.77  103.8    14    4.9   231    11.4   931.2    0.00 
 212   14:40   0.75  103.2    14    4.3   264    10.2   931.1    0.00 
 212   14:50   0.73  104.1    13    5.4   217    11.9   930.9    0.00 
 212   15:00   0.70  104.8    14    4.0   260     8.9   930.8    0.00 
 212   15:10   0.67  104.1    14    5.1   240    11.1   930.7    0.00 
 212   15:20   0.64  103.7    13    4.6   247    10.9   930.6    0.00 
 212   15:30   0.61  104.3    12    5.3   174     9.3   930.5    0.00 
 212   15:40   0.59  104.2    13    6.1   233    13.5   930.4    0.00 
 212   15:50   0.56  103.8    13    2.3   274     8.6   930.3    0.00 
 212   16:00   0.52  103.5    13    5.8   267    10.3   930.2    0.00 
 212   16:10   0.49  103.1    13    5.6   242    10.5   930.1    0.00 
 212   16:20   0.46  102.9    13    6.2   242    14.0   930.0    0.00 
 212   16:30   0.42  102.5    13    5.6   252    10.6   930.0    0.00 
 212   16:40   0.38  102.3    14    6.0   256    13.8   929.9    0.00 
 212   16:50   0.34  101.9    14    6.3   267    11.5   929.8    0.00 
 212   17:00   0.31  101.6    14    6.7   269    13.2   929.7    0.00 
 212   17:10   0.28  101.4    14    5.7   274     8.9   929.5    0.00 
 212   17:20   0.24  100.8    14    5.6   257    10.8   929.5    0.00 
 212   17:30   0.21  100.3    14    5.3   273    11.4   929.5    0.00 
 212   17:40   0.17  100.3    14    5.0   275     9.3   929.5    0.00 
 212   17:50   0.15   99.3    15    3.9   261     7.0   929.4    0.00 
 212   18:00   0.09   97.5    18    2.3   236     4.1   929.4    0.00 
 212   18:10   0.04   96.1    18    1.7   253     2.8   929.4    0.00 
 212   18:20   0.04   94.1    19    1.0   254     2.9   929.3    0.00 
 212   18:30   0.02   92.8    20    0.7   243     1.8   929.2    0.00 
 212   18:40   0.01   90.5    21    0.0   255     0.6   929.1    0.00 
 212   18:50   0.01   88.2    23    0.0     0     0.0   929.1    0.00 
 212   19:00   0.00   86.3    25    0.0     0     0.0   929.1    0.00 
 212   19:10   0.00   85.7    25    0.0     0     0.0   929.2    0.00 
 212   19:20   0.00   85.4    24    1.3    34     2.0   929.3    0.00 
 212   19:30   0.00   87.3    22    1.3    34     1.8   929.5    0.00 
 212   19:40   0.00   87.3    22    1.0    30     1.8   929.7    0.00 
 212   19:50   0.00   87.4    22    1.5    53     2.3   929.8    0.00 
 212   20:00   0.00   86.0    22    2.0    61     2.4   929.9    0.00 
 212   20:10   0.00   84.8    23    2.7    71     3.4   930.0    0.00 
 212   20:20   0.00   85.9    21    2.8    76     3.5   930.0    0.00 
 212   20:30   0.00   84.8    22    2.2    80     2.9   930.2    0.00 
 212   20:40   0.00   85.1    22    2.5    77     3.1   930.2    0.00 
 212   20:50   0.00   83.4    24    2.5    73     3.1   930.2    0.00 
 212   21:00   0.00   82.2    25    2.7    71     3.6   930.3    0.00 
 212   21:10   0.00   83.8    23    2.5    80     3.3   930.3    0.00 
 212   21:20   0.00   83.5    23    2.5    86     3.9   930.4    0.00 
 212   21:30   0.00   81.4    26    2.1    68     3.0   930.4    0.00 
 212   21:40   0.00   79.6    27    2.2    71     3.7   930.4    0.00 
 212   21:50   0.00   77.8    29    3.9    57     5.0   930.4    0.00 
 212   22:00   0.00   80.3    26    3.8    64     5.5   930.4    0.00 
 212   22:10   0.00   81.5    25    3.4    70     5.2   930.5    0.00 
 212   22:20   0.00   81.1    26    3.8    56     4.7   930.5    0.00 
 212   22:30   0.00   77.9    28    2.9    65     4.8   930.6    0.00 
 212   22:40   0.00   79.2    27    1.6   199     2.9   930.6    0.00 
 212   22:50   0.00   79.0    28    0.8   178     2.1   930.6    0.00 
 212   23:00   0.00   76.4    31    1.1   131     2.6   930.6    0.00 
 212   23:10   0.00   73.9    36    1.1    41     2.7   930.6    0.00 
 212   23:20   0.00   74.4    32    2.1    49     2.9   930.6    0.00 
 212   23:30   0.00   74.8    31    1.8    90     2.8   930.6    0.00 
 212   23:40   0.00   75.4    29    2.7    75     3.5   930.6    0.00 
 212   23:50   0.00   77.9    27    3.8    87     6.3   930.6    0.00 
 213    0:00   0.00   80.1    25    3.0    98     5.1   930.6    0.00 
 213    0:10   0.00   77.1    29    1.2    38     2.3   930.5    0.00 
 213    0:20   0.00   73.3    33    2.1    63     3.1   930.5    0.00 
 213    0:30   0.00   72.5    34    1.9    68     4.5   930.7    0.00 
 213    0:40   0.00   72.5    34    4.6    56     9.1   930.8    0.00 
 213    0:50   0.00   78.3    27    4.0    73     8.3   931.1    0.00 
 213    1:00   0.00   80.4    25    3.6   109     6.7   931.0    0.00 
 213    1:10   0.00   82.1    24    4.3    99     7.8   930.9    0.00 
 213    1:20   0.00   83.4    26    5.0   103     9.4   930.9    0.00 
 213    1:30   0.00   84.2    29    5.2   102    10.4   930.9    0.00 
 213    1:40   0.00   85.2    28    5.4    95    10.5   930.9    0.00 
 213    1:50   0.00   85.0    29    5.0    92     9.1   930.9    0.00 
 213    2:00   0.00   84.9    29    5.0    94     9.1   930.9    0.00 
 213    2:10   0.00   84.7    29    3.9    87     8.7   931.0    0.00 
 213    2:20   0.00   83.8    30    2.6   321     5.6   931.1    0.00 
 213    2:30   0.00   79.4    34    2.9   254     5.6   931.4    0.00 
 213    2:40   0.00   77.1    36    1.2   219     2.7   931.4    0.00 
 213    2:50   0.00   73.8    43    0.9    10     1.7   931.5    0.00 
 213    3:00   0.00   73.8    40    1.1     2     2.3   931.6    0.00 
 213    3:10   0.00   74.6    38    1.2    63     2.7   931.6    0.00 
 213    3:20   0.00   75.2    37    2.0   127     2.9   931.8    0.00 
 213    3:30   0.00   77.7    34    2.8   138     3.9   931.9    0.00 
 213    3:40   0.00   79.8    33    2.7   122     5.0   931.9    0.00 
 213    3:50   0.00   81.0    32    2.4   113     4.5   932.0    0.00 
 213    4:00   0.00   79.6    34    1.5    32     3.6   932.0    0.00 
 213    4:10   0.00   75.2    40    1.6    49     3.4   932.1    0.00 
 213    4:20   0.00   75.1    40    2.4    65     3.4   932.2    0.00 
 213    4:30   0.00   74.6    41    2.7    61     3.6   932.2    0.00 
 213    4:40   0.00   75.5    40    3.1    75     5.2   932.3    0.00 
 213    4:50   0.00   79.4    34    2.8   100     5.4   932.5    0.00 
 213    5:00   0.01   81.0    32    2.8   109     5.0   932.5    0.00 
 213    5:10   0.02   81.5    32    2.8   104     6.6   932.5    0.00 
 213    5:20   0.03   82.0    31    2.2    95     4.5   932.5    0.00 
 213    5:30   0.06   82.3    30    2.7    87     5.2   932.6    0.00 
 213    5:40   0.08   83.2    30    2.7    85     6.1   932.7    0.00 
 213    5:50   0.11   82.7    32    2.5    53     4.2   932.8    0.00 
 213    6:00   0.13   81.2    35    2.6    45     4.3   932.8    0.00 
 213    6:10   0.16   81.4    36    2.5    60     3.8   932.9    0.00 
 213    6:20   0.19   84.6    30    1.9    95     5.4   932.8    0.00 
 213    6:30   0.22   87.6    27    1.2   105     3.6   932.8    0.00 
 213    6:40   0.25   89.0    26    1.3   100     3.9   932.8    0.00 
 213    6:50   0.29   89.8    25    1.9   108     4.7   932.9    0.00 
 213    7:00   0.32   89.9    25    2.1   101     4.5   932.9    0.00 
 213    7:10   0.36   91.0    24    2.2   110     5.6   932.8    0.00 
 213    7:20   0.39   91.7    23    2.1   112     4.3   932.9    0.00 
 213    7:30   0.42   92.7    23    1.9    72     3.9   932.8    0.00 
 213    7:40   0.45   92.7    24    2.2     7     4.5   932.7    0.00 
 213    7:50   0.49   92.8    23    2.4   350     5.0   932.8    0.00 
 213    8:00   0.52   93.8    22    1.9   348     5.3   932.8    0.00 
 213    8:10   0.55   93.9    22    2.5   333     4.4   932.8    0.00 
 213    8:20   0.58   94.2    22    2.7   335     4.9   932.8    0.00 
 213    8:30   0.61   94.8    21    2.6   309     6.1   932.9    0.00 
 213    8:40   0.64   95.1    21    2.7   343     6.0   932.9    0.00 
 213    8:50   0.66   96.0    20    2.6   328     6.5   933.0    0.00 
 213    9:00   0.69   97.1    19    1.8   178     3.9   933.0    0.00 
 213    9:10   0.72   97.7    18    2.0    54     5.7   933.0    0.00 
 213    9:20   0.74   98.5    18    3.3   124     8.8   933.1    0.00 
 213    9:30   0.76   99.0    17    3.3   150     9.6   933.2    0.00 
 213    9:40   0.79   99.2    17    3.1   230     8.2   933.3    0.00 
 213    9:50   0.81   98.9    17    4.5   209     9.6   933.3    0.00 
 213   10:00   0.83   99.2    17    4.6   180     9.8   933.2    0.00 
 213   10:10   0.84  100.3    16    4.8   181    14.8   933.2    0.00 
 213   10:20   0.86  100.5    16    4.5   173    10.8   933.2    0.00 
 213   10:30   0.88  100.3    16    3.5   220     7.3   933.2    0.00 
 213   10:40   0.89  100.7    16    4.7   220    11.0   933.2    0.00 
 213   10:50   0.90  100.8    16    5.2   213    11.8   933.1    0.00 
 213   11:00   0.92  101.3    15    5.6   191    11.2   933.0    0.00 
 213   11:10   0.93  101.7    14    5.1   181    10.2   932.9    0.00 
 213   11:20   0.93  102.1    14    4.5   179    12.2   932.9    0.00 
 213   11:30   0.94  102.4    14    4.5   199    10.4   932.8    0.00 
 213   11:40   0.95  102.9    14    3.5   224    10.4   932.6    0.00 
 213   11:50   0.95  103.4    13    4.3   160    11.1   932.5    0.00 
 213   12:00   0.95  103.7    13    3.9   197    11.8   932.4    0.00 
 213   12:10   0.95  104.5    13    4.3   162    13.0   932.3    0.00 
 213   12:20   0.94  104.6    13    5.6   175    10.4   932.1    0.00 
 213   12:30   0.94  105.4    12    3.7   192     9.1   931.9    0.00 
 213   12:40   0.93  105.3    12    6.9   211    13.7   931.8    0.00 
 213   12:50   0.93  105.7    12    6.0   200    10.9   931.7    0.00 
 213   13:00   0.92  106.0    12    5.0   201     9.9   931.6    0.00 
 213   13:10   0.91  106.3    12    6.2   192    12.3   931.5    0.00 
 213   13:20   0.90  106.4    12    4.9   206    10.7   931.4    0.00 
 213   13:30   0.88  106.7    12    6.2   187    12.6   931.3    0.00 
 213   13:40   0.87  105.9    12    5.6   140    13.4   931.2    0.00 

Return to Rogers Spring graphs page.


Western Regional Climate Center,wrcc@dri.edu